Impacts TAF Board
For situational awareness. Not to be used for flight planning purposes.
IDs:

KGWO - Greenwood/Leflore Ar, MS, US

Issued at 1357 UTC 23 Jan 2019
Updated at 1730 UTC 23 Jan 2019
Potential Impact None Slight Moderate High
Time<<24/06Z 24/07Z 24/08Z 24/09Z 24/10Z 24/11Z 24/12Z 24/13Z 24/14Z 24/15Z 24/16Z 24/17Z 24/18Z>>
Type PRVL PRVL PRVL PRVL PRVL PRVL
VIS >6 >6 >6 >6 >6 >6
CIG -- -- -- -- -- --
Cover SCT SCT SCT SCT SCT SCT
FltCat VFR VFR VFR VFR VFR VFR
WX -- -- -- -- -- --
WDir 310 310 310 310 310 310
WSpd 4 4 4 4 4 4
WGst -- -- -- -- -- --
Raw TAF
KGWO 231357Z 2314/2412 36007KT 2SM -RA BR OVC025
  FM231700 30012KT 4SM RA BR BKN008
  FM232200 31011KT P6SM OVC015
  FM240200 31008KT P6SM BKN050
  FM240600 31004KT P6SM SCT100


METAR Board
Radar Display
Forecast Discussion
For situational awareness. Not to be used for flight planning purposes.